createdAt,value
2018-05-16T00:01:58.412Z,14.47
2018-05-16T00:04:27.285Z,13.73
2018-05-16T00:06:56.245Z,16.73
2018-05-16T00:09:25.121Z,14.18
2018-05-16T00:11:54.015Z,13.48
2018-05-16T00:14:22.903Z,14.93
2018-05-16T00:16:51.786Z,15.60
2018-05-16T00:19:20.783Z,12.77
2018-05-16T00:21:49.653Z,14.23
2018-05-16T00:24:18.542Z,14.65
2018-05-16T00:26:47.442Z,14.40
2018-05-16T00:29:16.329Z,14.73
2018-05-16T00:31:45.227Z,14.67
2018-05-16T00:34:14.118Z,14.60
2018-05-16T00:36:43.019Z,15.02
2018-05-16T00:39:11.918Z,15.20
2018-05-16T00:41:40.814Z,13.68
2018-05-16T00:44:09.722Z,15.45
2018-05-16T00:46:38.598Z,18.70
2018-05-16T00:49:07.488Z,14.90
2018-05-16T00:51:36.481Z,15.68
2018-05-16T00:54:05.442Z,15.57
2018-05-16T00:56:34.331Z,15.45
2018-05-16T00:59:03.226Z,15.07
2018-05-16T01:01:32.124Z,14.20
2018-05-16T01:04:01.108Z,15.75
2018-05-16T01:06:30.161Z,18.25
2018-05-16T01:08:59.102Z,16.30
2018-05-16T01:11:27.982Z,18.30
2018-05-16T01:13:56.862Z,17.23
2018-05-16T01:16:25.747Z,16.80
2018-05-16T01:18:54.662Z,18.25
2018-05-16T01:21:23.662Z,17.95
2018-05-16T01:23:52.533Z,18.12
2018-05-16T01:26:21.501Z,18.15
2018-05-16T01:28:50.398Z,18.17
2018-05-16T01:31:19.391Z,19.37
2018-05-16T01:33:48.377Z,17.20
2018-05-16T01:36:17.247Z,18.65
2018-05-16T01:38:46.139Z,16.55
2018-05-16T01:41:15.023Z,19.80
2018-05-16T01:43:43.907Z,16.83
2018-05-16T01:46:12.799Z,18.50
2018-05-16T01:48:41.711Z,17.33
2018-05-16T01:51:10.725Z,19.35
2018-05-16T01:53:39.609Z,18.20
2018-05-16T01:56:08.485Z,20.00
2018-05-16T01:58:37.372Z,18.67
2018-05-16T02:01:06.239Z,17.77
2018-05-16T02:03:35.155Z,17.98
2018-05-16T02:06:04.027Z,22.62
2018-05-16T02:08:32.912Z,18.30
2018-05-16T02:11:01.930Z,19.33
2018-05-16T02:13:30.819Z,18.67
2018-05-16T02:15:59.831Z,18.70
2018-05-16T02:18:28.702Z,20.05
2018-05-16T02:20:57.610Z,18.75
2018-05-16T02:23:26.577Z,19.05
2018-05-16T02:25:55.667Z,18.35
2018-05-16T02:28:24.591Z,18.20
2018-05-16T02:30:53.479Z,19.07
2018-05-16T02:33:23.182Z,17.85
2018-05-16T02:35:53.675Z,18.80
2018-05-16T02:38:22.663Z,16.95
2018-05-16T02:40:51.556Z,17.60
2018-05-16T02:43:20.458Z,17.87
2018-05-16T02:45:49.431Z,18.23
2018-05-16T02:48:18.330Z,19.48
2018-05-16T02:50:47.315Z,18.92
2018-05-16T02:53:16.217Z,19.42
2018-05-16T02:55:45.195Z,18.80
2018-05-16T02:58:14.103Z,19.02
2018-05-16T03:00:43.001Z,18.67
2018-05-16T03:03:11.916Z,18.37
2018-05-16T03:05:41.580Z,21.15
2018-05-16T03:08:10.567Z,17.27
2018-05-16T03:10:39.475Z,18.98
2018-05-16T03:13:08.370Z,17.55
2018-05-16T03:15:37.284Z,19.30
2018-05-16T03:18:07.033Z,18.50
2018-05-16T03:20:35.916Z,19.85
2018-05-16T03:23:04.919Z,17.25
2018-05-16T03:25:33.794Z,18.58
2018-05-16T03:28:02.675Z,18.05
2018-05-16T03:30:31.624Z,19.17
2018-05-16T03:33:00.522Z,19.02
2018-05-16T03:35:30.211Z,18.17
2018-05-16T03:37:59.176Z,19.48
2018-05-16T03:40:28.054Z,24.45
2018-05-16T03:42:56.947Z,19.83
2018-05-16T03:45:25.832Z,18.25
2018-05-16T03:47:54.738Z,21.00
2018-05-16T03:50:24.539Z,19.62
2018-05-16T03:52:53.399Z,19.90
2018-05-16T03:55:22.303Z,20.60
2018-05-16T04:01:14.476Z,19.30
2018-05-16T04:03:55.429Z,19.75
2018-05-16T04:06:24.369Z,20.40
2018-05-16T04:08:53.328Z,20.55
2018-05-16T04:11:22.274Z,18.98
2018-05-16T04:13:51.206Z,18.80
2018-05-16T04:16:20.214Z,18.60
2018-05-16T04:18:49.108Z,19.75
2018-05-16T04:21:17.986Z,19.40
2018-05-16T04:23:46.885Z,19.55
2018-05-16T04:26:15.793Z,18.60
2018-05-16T04:28:44.832Z,20.20
2018-05-16T04:31:13.653Z,17.90
2018-05-16T04:33:42.557Z,20.58
2018-05-16T04:36:11.465Z,19.55
2018-05-16T04:38:40.349Z,19.30
2018-05-16T04:41:10.111Z,19.58
2018-05-16T04:43:38.997Z,18.00
2018-05-16T04:46:07.880Z,19.00
2018-05-16T04:48:36.881Z,18.92
2018-05-16T04:51:05.787Z,19.10
2018-05-16T04:53:34.671Z,20.05
2018-05-16T04:56:03.558Z,19.02
2018-05-16T04:58:32.450Z,19.35
2018-05-16T05:01:01.485Z,18.48
2018-05-16T05:03:30.263Z,19.37
2018-05-16T05:05:59.948Z,21.40
2018-05-16T05:08:28.851Z,20.50
2018-05-16T05:10:57.749Z,18.52
2018-05-16T05:13:26.640Z,19.37
2018-05-16T05:15:56.311Z,19.63
2018-05-16T05:18:25.251Z,17.67
2018-05-16T05:20:54.197Z,19.05
2018-05-16T05:23:23.088Z,20.30
2018-05-16T05:25:52.051Z,21.45
2018-05-16T05:28:20.951Z,19.10
2018-05-16T05:30:49.886Z,19.77
2018-05-16T05:33:19.656Z,19.55
2018-05-16T05:35:48.557Z,19.90
2018-05-16T05:38:17.454Z,18.05
2018-05-16T05:40:46.427Z,21.15
2018-05-16T05:43:15.411Z,19.12
2018-05-16T05:45:44.221Z,23.00
2018-05-16T05:48:13.211Z,20.00
2018-05-16T05:50:42.115Z,19.33
2018-05-16T05:53:11.000Z,19.37
2018-05-16T05:55:40.003Z,20.85
2018-05-16T05:58:08.914Z,19.12
2018-05-16T06:00:38.767Z,20.37
2018-05-16T06:03:07.754Z,18.70
2018-05-16T06:05:36.688Z,17.45
2018-05-16T06:08:05.587Z,18.77
2018-05-16T06:10:35.352Z,20.88
2018-05-16T06:13:04.235Z,21.73
2018-05-16T06:15:33.211Z,18.10
2018-05-16T06:18:02.108Z,18.75
2018-05-16T06:20:31.128Z,18.45
2018-05-16T06:23:00.024Z,18.75
2018-05-16T06:25:29.709Z,20.58
2018-05-16T06:27:58.583Z,18.60
2018-05-16T06:30:27.484Z,19.42
2018-05-16T06:32:56.478Z,18.92
2018-05-16T06:35:25.460Z,16.55
2018-05-16T06:37:54.739Z,17.40
2018-05-16T06:40:23.630Z,17.10
2018-05-16T06:42:52.531Z,17.05
2018-05-16T06:45:21.423Z,17.15
2018-05-16T06:47:50.406Z,17.67
2018-05-16T06:50:19.410Z,18.70
2018-05-16T06:52:48.356Z,18.23
2018-05-16T06:55:18.034Z,16.65
2018-05-16T06:57:46.955Z,19.92
2018-05-16T07:00:15.864Z,18.05
2018-05-16T07:02:44.758Z,16.35
2018-05-16T07:05:13.685Z,16.05
2018-05-16T07:07:42.602Z,17.42
2018-05-16T07:10:12.246Z,16.33
2018-05-16T07:12:41.152Z,17.02
2018-05-16T07:15:10.601Z,16.17
2018-05-16T07:17:40.270Z,14.18
2018-05-16T07:20:09.170Z,16.65
2018-05-16T07:22:38.088Z,14.45
2018-05-16T07:25:07.855Z,14.10
2018-05-16T07:27:36.756Z,13.88
2018-05-16T07:30:07.172Z,16.75
2018-05-16T07:32:36.141Z,14.68
2018-05-16T07:35:05.025Z,15.38
2018-05-16T07:37:33.917Z,13.18
2018-05-16T07:40:03.763Z,14.25
2018-05-16T07:42:32.742Z,13.25
2018-05-16T07:45:01.731Z,11.63
2018-05-16T07:47:30.616Z,11.88
2018-05-16T07:49:59.616Z,11.63
2018-05-16T07:52:28.537Z,11.20
2018-05-16T07:54:57.498Z,11.98
2018-05-16T07:57:26.487Z,13.88
2018-05-16T07:59:55.369Z,11.35
2018-05-16T08:02:24.276Z,12.43
2018-05-16T08:04:53.239Z,11.30
2018-05-16T08:07:22.163Z,12.63
2018-05-16T08:09:51.087Z,12.27
2018-05-16T08:12:20.802Z,11.63
2018-05-16T08:14:49.618Z,10.50
2018-05-16T08:17:18.527Z,11.10
2018-05-16T08:19:47.495Z,11.57
2018-05-16T08:22:16.421Z,11.10
2018-05-16T08:24:45.294Z,12.32
2018-05-16T08:27:14.227Z,11.35
2018-05-16T08:29:43.875Z,11.05
2018-05-16T08:32:12.802Z,11.65
2018-05-16T08:34:42.555Z,11.88
2018-05-16T08:37:11.461Z,9.85
2018-05-16T08:39:40.319Z,11.63
2018-05-16T08:42:09.213Z,10.75
2018-05-16T08:44:38.142Z,10.43
2018-05-16T08:47:07.052Z,11.87
2018-05-16T08:49:36.029Z,11.82
2018-05-16T08:52:05.036Z,11.88
2018-05-16T08:54:34.012Z,11.38
2018-05-16T08:57:02.893Z,10.02
2018-05-16T08:59:31.877Z,11.80
2018-05-16T09:02:00.878Z,11.45
2018-05-16T09:04:29.803Z,11.07
2018-05-16T09:06:59.455Z,10.25
2018-05-16T09:09:28.370Z,10.52
2018-05-16T09:11:57.256Z,10.10
2018-05-16T09:14:26.210Z,9.77
2018-05-16T09:16:55.258Z,9.03
2018-05-16T09:19:24.187Z,8.02
2018-05-16T09:21:53.878Z,7.72
2018-05-16T09:24:22.818Z,6.07
2018-05-16T09:26:51.731Z,6.03
2018-05-16T09:29:20.617Z,5.82
2018-05-16T09:31:49.491Z,6.13
2018-05-16T09:34:18.415Z,6.00
2018-05-16T09:36:47.375Z,6.55
2018-05-16T09:39:16.248Z,6.60
2018-05-16T09:41:45.145Z,8.40
2018-05-16T09:44:14.058Z,7.53
2018-05-16T09:46:43.029Z,7.50
2018-05-16T09:49:11.912Z,7.22
2018-05-16T09:51:40.807Z,7.45
2018-05-16T09:54:09.716Z,6.68
2018-05-16T09:56:38.606Z,7.20
2018-05-16T09:59:07.521Z,6.95
2018-05-16T10:01:36.430Z,7.30
2018-05-16T10:04:06.069Z,6.10
2018-05-16T10:06:34.978Z,7.57
2018-05-16T10:09:03.868Z,5.65
2018-05-16T10:11:32.776Z,4.65
2018-05-16T10:14:03.207Z,5.55
2018-05-16T10:16:33.713Z,4.73
2018-05-16T10:19:02.601Z,6.45
2018-05-16T10:21:31.494Z,4.45
2018-05-16T10:24:00.460Z,5.00
2018-05-16T10:26:29.478Z,3.87
2018-05-16T10:29:02.184Z,3.90
2018-05-16T10:31:31.824Z,5.30
2018-05-16T10:34:00.723Z,4.12
2018-05-16T10:36:30.424Z,4.80
2018-05-16T10:38:59.462Z,3.37
2018-05-16T10:41:28.390Z,4.12
2018-05-16T10:43:57.270Z,3.22
2018-05-16T10:46:27.026Z,2.70
2018-05-16T10:48:55.931Z,2.83
2018-05-16T10:51:24.803Z,3.58
2018-05-16T10:53:53.685Z,3.97
2018-05-16T10:56:22.657Z,3.55
2018-05-16T10:58:51.533Z,3.42
2018-05-16T11:01:20.419Z,4.10
2018-05-16T11:03:49.324Z,6.12
2018-05-16T11:06:18.200Z,3.10
2018-05-16T11:08:47.098Z,3.10
2018-05-16T11:11:15.987Z,5.62
2018-05-16T11:13:44.918Z,4.00
2018-05-16T11:16:13.803Z,3.85
2018-05-16T11:18:42.681Z,4.87
2018-05-16T11:21:11.581Z,4.30
2018-05-16T11:23:40.444Z,3.35
2018-05-16T11:26:09.381Z,3.25
2018-05-16T11:28:38.344Z,4.18
2018-05-16T11:31:07.338Z,3.20
2018-05-16T11:33:36.355Z,3.50
2018-05-16T11:36:05.261Z,3.10
2018-05-16T11:38:34.165Z,3.30
2018-05-16T11:41:03.255Z,2.80
2018-05-16T11:43:32.192Z,3.62
2018-05-16T11:46:01.271Z,2.90
2018-05-16T11:48:30.238Z,3.05
2018-05-16T11:50:59.177Z,3.40
2018-05-16T11:53:28.043Z,2.75
2018-05-16T11:55:56.944Z,2.78
2018-05-16T11:58:25.837Z,3.40
2018-05-16T12:00:54.751Z,20.90
2018-05-16T12:03:23.660Z,3.25
2018-05-16T12:05:53.317Z,2.25
2018-05-16T12:08:22.209Z,3.20
2018-05-16T12:10:51.113Z,2.20
2018-05-16T12:13:21.518Z,2.45
2018-05-16T12:15:50.515Z,2.30
2018-05-16T12:18:19.396Z,2.37
2018-05-16T12:20:48.295Z,2.37
2018-05-16T12:23:17.209Z,2.20
2018-05-16T12:25:46.106Z,2.90
2018-05-16T12:28:15.777Z,3.97
2018-05-16T12:30:44.659Z,2.77
2018-05-16T12:33:13.608Z,3.03
2018-05-16T12:35:43.239Z,3.23
2018-05-16T12:38:12.168Z,2.75
2018-05-16T12:40:41.069Z,3.30
2018-05-16T12:43:16.693Z,4.53
2018-05-16T12:45:45.606Z,5.37
2018-05-16T12:48:14.541Z,4.80
2018-05-16T12:50:43.460Z,16.15
2018-05-16T12:53:12.350Z,3.80
2018-05-16T12:55:41.276Z,3.90
2018-05-16T12:58:10.138Z,3.95
2018-05-16T13:00:39.022Z,3.20
2018-05-16T13:03:07.934Z,4.50
2018-05-16T13:05:36.841Z,4.95
2018-05-16T13:08:06.533Z,4.30
2018-05-16T13:10:35.435Z,4.20
2018-05-16T13:13:05.130Z,3.60
2018-05-16T13:15:34.010Z,3.90
2018-05-16T13:18:02.976Z,3.60
2018-05-16T13:20:31.803Z,3.75
2018-05-16T13:23:01.461Z,3.93
2018-05-16T13:25:30.361Z,3.77
2018-05-16T13:27:59.267Z,3.47
2018-05-16T13:30:28.268Z,5.33
2018-05-16T13:32:57.155Z,5.40
2018-05-16T13:35:26.021Z,4.53
2018-05-16T13:37:55.658Z,4.77
2018-05-16T13:40:24.607Z,4.60
2018-05-16T13:42:53.527Z,5.30
2018-05-16T13:45:22.413Z,5.93
2018-05-16T13:47:51.327Z,5.13
2018-05-16T13:50:20.368Z,4.60
2018-05-16T13:52:49.448Z,5.50
2018-05-16T13:55:18.372Z,5.63
2018-05-16T13:57:47.291Z,5.80
2018-05-16T14:00:16.247Z,5.63
2018-05-16T14:02:45.221Z,5.63
2018-05-16T14:05:14.140Z,4.93
2018-05-16T14:07:43.012Z,4.28
2018-05-16T14:10:11.985Z,4.97
2018-05-16T14:12:40.873Z,5.90
2018-05-16T14:15:09.755Z,6.37
2018-05-16T14:17:38.683Z,6.10
2018-05-16T14:20:07.674Z,5.07
2018-05-16T14:22:36.619Z,5.22
2018-05-16T14:25:05.640Z,6.28
2018-05-16T14:27:34.545Z,5.20
2018-05-16T14:30:03.448Z,4.10
2018-05-16T14:32:32.348Z,4.57
2018-05-16T14:35:02.007Z,5.30
2018-05-16T14:37:30.920Z,5.43
2018-05-16T14:39:59.795Z,5.37
2018-05-16T14:42:28.741Z,5.15
2018-05-16T14:44:57.604Z,5.33
2018-05-16T14:47:26.517Z,5.70
2018-05-16T14:49:55.403Z,5.95
2018-05-16T14:52:25.059Z,6.10
2018-05-16T14:54:53.978Z,6.67
2018-05-16T14:57:22.875Z,5.47
2018-05-16T14:59:51.820Z,5.93
2018-05-16T15:02:20.703Z,6.00
2018-05-16T15:04:49.595Z,5.40
2018-05-16T15:07:18.476Z,8.90
2018-05-16T15:09:47.377Z,7.23
2018-05-16T15:12:16.281Z,7.67
2018-05-16T15:14:45.228Z,7.70
2018-05-16T15:17:14.075Z,7.90
2018-05-16T15:19:43.003Z,9.00
2018-05-16T15:22:12.649Z,8.20
2018-05-16T15:24:41.540Z,8.33
2018-05-16T15:27:10.549Z,8.70
2018-05-16T15:29:39.475Z,8.40
2018-05-16T15:32:09.132Z,9.00
2018-05-16T15:34:38.041Z,9.03
2018-05-16T15:37:06.940Z,10.13
2018-05-16T15:39:35.840Z,8.50
2018-05-16T15:42:04.747Z,9.93
2018-05-16T15:44:34.420Z,9.70
2018-05-16T15:47:03.352Z,9.50
2018-05-16T15:49:32.248Z,10.57
2018-05-16T15:52:01.205Z,9.87
2018-05-16T15:54:30.097Z,9.00
2018-05-16T15:56:59.785Z,9.57
2018-05-16T15:59:28.698Z,9.02
2018-05-16T16:01:58.382Z,9.00
2018-05-16T16:04:27.319Z,10.10
2018-05-16T16:06:56.215Z,8.60
2018-05-16T16:09:25.173Z,8.48
2018-05-16T16:11:54.063Z,8.82
2018-05-16T16:14:22.958Z,12.10
2018-05-16T16:16:51.858Z,11.33
2018-05-16T16:19:20.817Z,9.50
2018-05-16T16:21:49.803Z,10.05
2018-05-16T16:24:18.897Z,4.30
2018-05-16T16:26:47.821Z,2.22
2018-05-16T16:29:17.475Z,2.92
2018-05-16T16:31:46.397Z,4.70
2018-05-16T16:34:15.421Z,2.45
2018-05-16T16:36:45.058Z,3.28
2018-05-16T16:39:14.145Z,3.40
2018-05-16T16:41:42.990Z,2.30
2018-05-16T16:44:11.941Z,2.45
2018-05-16T16:46:40.853Z,2.50
2018-05-16T16:49:10.603Z,6.97
2018-05-16T16:51:40.251Z,4.50
2018-05-16T16:54:09.168Z,4.75
2018-05-16T16:56:38.064Z,4.32
2018-05-16T16:59:07.735Z,4.12
2018-05-16T17:01:36.693Z,5.43
2018-05-16T17:04:05.602Z,8.02
2018-05-16T17:06:35.225Z,6.97
2018-05-16T17:09:04.129Z,9.52
2018-05-16T17:11:33.082Z,13.02
2018-05-16T17:14:02.059Z,17.73
2018-05-16T17:16:31.688Z,15.80
2018-05-16T17:19:01.055Z,17.65
2018-05-16T17:21:30.720Z,11.60
2018-05-16T17:23:59.630Z,11.02
2018-05-16T17:26:29.318Z,6.95
2018-05-16T17:28:58.248Z,8.88
2018-05-16T17:31:27.157Z,7.78
2018-05-16T17:33:56.078Z,8.05
2018-05-16T17:36:24.999Z,4.60
2018-05-16T17:38:53.881Z,7.60
2018-05-16T17:41:23.598Z,7.00
2018-05-16T17:43:53.251Z,4.50
2018-05-16T17:46:22.140Z,4.60
2018-05-16T17:48:51.089Z,5.18
2018-05-16T17:51:19.959Z,6.07
2018-05-16T17:53:49.036Z,10.07
2018-05-16T17:56:18.627Z,6.12
2018-05-16T17:58:47.556Z,4.03
2018-05-16T18:01:16.466Z,6.03
2018-05-16T18:03:46.140Z,4.35
2018-05-16T18:06:15.084Z,2.87
2018-05-16T18:08:44.050Z,4.40
2018-05-16T18:11:12.932Z,3.03
2018-05-16T18:14:03.249Z,3.97
2018-05-16T18:16:44.725Z,13.07
2018-05-16T18:19:13.607Z,11.10
2018-05-16T18:21:43.346Z,8.30
2018-05-16T18:24:12.224Z,8.05
2018-05-16T18:26:41.133Z,11.77
2018-05-16T18:29:10.038Z,7.30
2018-05-16T18:31:38.917Z,12.83
2018-05-16T18:34:07.850Z,9.35
2018-05-16T18:36:37.520Z,12.68
2018-05-16T18:39:06.417Z,7.20
2018-05-16T18:41:35.368Z,9.65
2018-05-16T18:44:04.292Z,6.40
2018-05-16T18:46:33.337Z,10.97
2018-05-16T18:49:02.689Z,9.63
2018-05-16T18:51:31.660Z,7.70
2018-05-16T18:54:00.582Z,7.10
2018-05-16T18:56:29.565Z,9.27
2018-05-16T18:58:58.867Z,10.15
2018-05-16T19:01:27.783Z,7.40
2018-05-16T19:03:57.481Z,8.43
2018-05-16T19:06:26.458Z,7.65
2018-05-16T19:08:55.514Z,10.40
2018-05-16T19:11:24.444Z,9.73
2018-05-16T19:13:53.386Z,12.45
2018-05-16T19:16:22.306Z,12.67
2018-05-16T19:18:51.244Z,13.38
2018-05-16T19:21:20.163Z,9.40
2018-05-16T19:23:49.101Z,10.57
2018-05-16T19:26:18.074Z,12.40
2018-05-16T19:28:46.977Z,13.20
2018-05-16T19:31:15.928Z,12.90
2018-05-16T19:33:44.849Z,13.32
2018-05-16T19:36:13.797Z,12.50
2018-05-16T19:38:42.708Z,12.23
2018-05-16T19:41:12.151Z,13.55
2018-05-16T19:43:41.085Z,15.90
2018-05-16T19:46:10.062Z,14.10
2018-05-16T19:48:39.454Z,14.30
2018-05-16T19:51:08.873Z,17.15
2018-05-16T19:53:40.155Z,18.05
2018-05-16T19:56:10.408Z,16.92
2018-05-16T19:58:39.668Z,17.95
2018-05-16T20:01:08.866Z,19.37
2018-05-16T20:03:37.777Z,18.15
2018-05-16T20:06:07.479Z,17.05
2018-05-16T20:08:36.688Z,18.33
2018-05-16T20:11:06.343Z,20.15
2018-05-16T20:13:35.890Z,17.20
2018-05-16T20:16:05.612Z,15.93
2018-05-16T20:18:35.700Z,16.33
2018-05-16T20:21:05.488Z,16.20
2018-05-16T20:23:34.460Z,16.25
2018-05-16T20:26:03.368Z,16.33
2018-05-16T20:28:32.313Z,15.70
2018-05-16T20:31:01.212Z,15.57
2018-05-16T20:33:30.124Z,16.98
2018-05-16T20:35:59.865Z,16.23
2018-05-16T20:38:29.136Z,16.58
2018-05-16T20:40:58.055Z,15.95
2018-05-16T20:43:27.850Z,16.42
2018-05-16T20:45:56.912Z,16.47
2018-05-16T20:48:25.806Z,16.87
2018-05-16T20:50:54.703Z,17.30
2018-05-16T20:53:23.831Z,16.65
2018-05-16T20:55:53.518Z,17.25
2018-05-16T20:58:22.431Z,17.25
2018-05-16T21:00:51.323Z,16.53
2018-05-16T21:03:20.263Z,17.45
2018-05-16T21:05:49.140Z,17.42
2018-05-16T21:08:18.062Z,18.83
2018-05-16T21:10:46.975Z,20.12
2018-05-16T21:13:15.945Z,19.87
2018-05-16T21:15:44.865Z,20.00
2018-05-16T21:18:14.573Z,20.25
2018-05-16T21:20:43.537Z,19.55
2018-05-16T21:23:12.428Z,20.67
2018-05-16T21:25:41.320Z,21.52
2018-05-16T21:28:10.219Z,18.83
2018-05-16T21:30:39.119Z,19.80
2018-05-16T21:33:08.778Z,20.08
2018-05-16T21:35:37.774Z,17.80
2018-05-16T21:38:06.778Z,19.45
2018-05-16T21:40:35.686Z,19.65
2018-05-16T21:43:04.584Z,20.12
2018-05-16T21:45:33.452Z,17.20
2018-05-16T21:48:02.356Z,17.83
2018-05-16T21:50:31.259Z,19.55
2018-05-16T21:53:00.962Z,18.27
2018-05-16T21:55:31.458Z,17.92
2018-05-16T21:58:00.348Z,17.30
2018-05-16T22:00:29.246Z,20.62
2018-05-16T22:02:58.147Z,18.00
2018-05-16T22:05:27.237Z,16.05
2018-05-16T22:07:56.107Z,17.80
2018-05-16T22:10:25.033Z,17.50
2018-05-16T22:12:55.540Z,17.77
2018-05-16T22:15:24.422Z,17.70
2018-05-16T22:17:53.402Z,18.62
2018-05-16T22:20:22.386Z,17.70
2018-05-16T22:22:52.073Z,19.67
2018-05-16T22:25:20.975Z,20.23
2018-05-16T22:27:49.913Z,19.77
2018-05-16T22:30:18.495Z,16.60
2018-05-16T22:32:52.927Z,18.98
2018-05-16T22:35:28.177Z,18.60
2018-05-16T22:38:03.414Z,19.20
2018-05-16T22:40:38.003Z,17.58
2018-05-16T22:43:07.202Z,18.08
2018-05-16T22:45:53.792Z,20.67
2018-05-16T22:48:22.784Z,17.65
2018-05-16T22:50:51.704Z,20.33
2018-05-16T22:53:20.591Z,20.15
2018-05-16T22:55:49.463Z,18.12
2018-05-16T22:58:18.349Z,17.55
2018-05-16T23:00:47.250Z,17.97
2018-05-16T23:03:16.912Z,19.20
2018-05-16T23:05:45.823Z,19.77
2018-05-16T23:08:14.789Z,18.90
2018-05-16T23:10:43.678Z,18.08
2018-05-16T23:13:12.595Z,18.35
2018-05-16T23:15:42.619Z,19.70
2018-05-16T23:18:11.591Z,19.37
2018-05-16T23:20:40.466Z,17.27
2018-05-16T23:23:09.370Z,18.52
2018-05-16T23:25:38.243Z,16.10
2018-05-16T23:28:07.115Z,19.05
2018-05-16T23:30:36.035Z,18.33
2018-05-16T23:33:04.949Z,17.60
2018-05-16T23:35:33.938Z,17.52
2018-05-16T23:38:02.803Z,16.25
2018-05-16T23:40:31.701Z,16.65
2018-05-16T23:43:00.611Z,16.55
2018-05-16T23:45:29.496Z,16.75
2018-05-16T23:47:58.451Z,14.75
2018-05-16T23:50:27.445Z,16.85
2018-05-16T23:52:56.735Z,15.18
2018-05-16T23:55:25.635Z,18.00
2018-05-16T23:57:55.784Z,15.88
